Terminal Aerodrome Forecast
Issued by NWS

Home | Current Version | Previous Version | Text Only | Print | Product List | Glossary Off
Versions: 1 2 3 4 5 6 7 8 9 10 11 12 13

000
FTUS42 KTBW 220500
TAFPIE
TAF
KPIE 220530Z 2206/2306 VRB03KT P6SM SCT250
     FM221400 VRB04KT P6SM FEW025 SCT250
     FM221600 04005KT P6SM SCT035 SCT250
     FM221800 36005KT P6SM VCTS SCT040CB SCT100 SCT250
     FM222000 31007KT P6SM VCTS SCT040CB SCT100 BKN250
     FM230100 VRB03KT P6SM FEW040 SCT130 BKN250=

USA.gov is the U.S. government's official web portal to all federal, state and local government web resources and services.